createdAt,value
2017-05-15T00:00:15.815Z,17.33
2017-05-15T00:01:17.183Z,17.30
2017-05-15T00:02:18.606Z,17.43
2017-05-15T00:03:19.967Z,17.48
2017-05-15T00:04:21.336Z,17.40
2017-05-15T00:05:22.707Z,17.40
2017-05-15T00:06:24.072Z,17.48
2017-05-15T00:07:25.445Z,17.35
2017-05-15T00:08:26.822Z,17.44
2017-05-15T00:09:28.179Z,17.43
2017-05-15T00:10:29.544Z,17.36
2017-05-15T00:11:30.913Z,17.32
2017-05-15T00:12:32.310Z,17.33
2017-05-15T00:13:33.679Z,17.30
2017-05-15T00:14:35.061Z,17.41
2017-05-15T00:15:36.441Z,17.47
2017-05-15T00:16:37.813Z,17.30
2017-05-15T00:17:39.183Z,17.35
2017-05-15T00:18:40.615Z,17.46
2017-05-15T00:19:41.990Z,17.30
2017-05-15T00:20:43.356Z,17.32
2017-05-15T00:21:44.720Z,17.35
2017-05-15T00:22:46.109Z,17.28
2017-05-15T00:23:47.480Z,17.30
2017-05-15T00:24:48.847Z,17.32
2017-05-15T00:25:50.209Z,17.33
2017-05-15T00:26:51.575Z,17.38
2017-05-15T00:27:52.948Z,17.29
2017-05-15T00:28:54.305Z,17.26
2017-05-15T00:29:55.661Z,17.36
2017-05-15T00:30:57.039Z,17.29
2017-05-15T00:31:58.413Z,17.32
2017-05-15T00:32:59.793Z,17.22
2017-05-15T00:34:01.156Z,17.28
2017-05-15T00:35:02.525Z,17.30
2017-05-15T00:36:03.893Z,17.36
2017-05-15T00:37:05.253Z,17.36
2017-05-15T00:38:06.635Z,17.32
2017-05-15T00:39:08.019Z,17.33
2017-05-15T00:40:09.387Z,17.36
2017-05-15T00:41:10.802Z,17.33
2017-05-15T00:42:12.170Z,17.38
2017-05-15T00:43:13.543Z,17.29
2017-05-15T00:44:15.496Z,17.28
2017-05-15T00:45:16.863Z,17.23
2017-05-15T00:46:18.226Z,17.29
2017-05-15T00:47:19.595Z,17.30
2017-05-15T00:48:20.970Z,17.26
2017-05-15T00:49:22.342Z,17.41
2017-05-15T00:50:23.778Z,17.28
2017-05-15T00:51:25.149Z,17.28
2017-05-15T00:52:26.514Z,17.25
2017-05-15T00:53:27.884Z,17.26
2017-05-15T00:54:29.248Z,17.29
2017-05-15T00:55:30.611Z,17.35
2017-05-15T00:56:31.975Z,17.40
2017-05-15T00:57:33.733Z,17.36
2017-05-15T00:58:35.096Z,17.29
2017-05-15T00:59:36.470Z,17.30
2017-05-15T01:00:37.835Z,17.23
2017-05-15T01:01:39.199Z,17.25
2017-05-15T01:02:40.581Z,17.30
2017-05-15T01:03:41.944Z,17.29
2017-05-15T01:04:43.310Z,17.28
2017-05-15T01:05:44.704Z,17.25
2017-05-15T01:06:46.080Z,17.28
2017-05-15T01:07:47.443Z,17.33
2017-05-15T01:08:48.814Z,17.25
2017-05-15T01:09:50.185Z,17.25
2017-05-15T01:10:51.549Z,17.33
2017-05-15T01:11:52.922Z,17.36
2017-05-15T01:12:54.289Z,17.35
2017-05-15T01:13:55.649Z,17.32
2017-05-15T01:14:57.023Z,17.22
2017-05-15T01:15:58.392Z,17.33
2017-05-15T01:16:59.757Z,17.33
2017-05-15T01:18:01.124Z,17.30
2017-05-15T01:19:02.488Z,17.36
2017-05-15T01:20:03.848Z,17.32
2017-05-15T01:21:05.266Z,17.28
2017-05-15T01:22:06.629Z,17.30
2017-05-15T01:23:07.998Z,17.25
2017-05-15T01:24:09.366Z,17.22
2017-05-15T01:25:10.729Z,17.28
2017-05-15T01:26:12.110Z,17.25
2017-05-15T01:27:13.471Z,17.26
2017-05-15T01:28:14.838Z,17.17
2017-05-15T01:29:16.203Z,17.17
2017-05-15T01:30:17.573Z,17.14
2017-05-15T01:31:18.963Z,17.11
2017-05-15T01:32:20.335Z,17.06
2017-05-15T01:33:21.700Z,17.17
2017-05-15T01:34:23.064Z,17.08
2017-05-15T01:35:24.424Z,17.00
2017-05-15T01:36:25.789Z,16.89
2017-05-15T01:37:27.176Z,17.00
2017-05-15T01:38:28.549Z,16.98
2017-05-15T01:39:29.871Z,17.04
2017-05-15T01:40:31.234Z,17.00
2017-05-15T01:41:32.599Z,16.96
2017-05-15T01:42:33.974Z,16.95
2017-05-15T01:43:35.335Z,17.03
2017-05-15T01:44:37.246Z,16.95
2017-05-15T01:45:38.615Z,16.93
2017-05-15T01:46:39.982Z,16.93
2017-05-15T01:47:41.345Z,17.00
2017-05-15T01:48:42.713Z,17.00
2017-05-15T01:49:44.078Z,17.00
2017-05-15T01:50:45.660Z,17.00
2017-05-15T01:51:47.027Z,17.00
2017-05-15T01:52:48.391Z,17.06
2017-05-15T01:53:49.759Z,16.98
2017-05-15T01:54:51.123Z,16.98
2017-05-15T01:55:52.491Z,16.86
2017-05-15T01:56:53.861Z,16.77
2017-05-15T01:57:55.231Z,16.85
2017-05-15T01:58:56.599Z,16.86
2017-05-15T01:59:58.028Z,16.90
2017-05-15T02:00:59.393Z,16.88
2017-05-15T02:02:00.761Z,16.88
2017-05-15T02:03:02.142Z,16.90
2017-05-15T02:04:03.506Z,16.81
2017-05-15T02:05:04.870Z,16.96
2017-05-15T02:06:06.241Z,16.85
2017-05-15T02:07:07.606Z,16.89
2017-05-15T02:08:08.997Z,16.90
2017-05-15T02:09:10.360Z,16.86
2017-05-15T02:10:11.767Z,16.89
2017-05-15T02:11:13.146Z,16.86
2017-05-15T02:12:14.505Z,16.77
2017-05-15T02:13:15.902Z,16.86
2017-05-15T02:14:17.281Z,16.90
2017-05-15T02:15:18.754Z,16.86
2017-05-15T02:16:20.064Z,16.81
2017-05-15T02:17:21.421Z,16.85
2017-05-15T02:18:22.842Z,16.89
2017-05-15T02:19:24.234Z,16.78
2017-05-15T02:20:25.593Z,16.80
2017-05-15T02:21:26.963Z,16.80
2017-05-15T02:22:28.342Z,16.74
2017-05-15T02:23:29.723Z,16.67
2017-05-15T02:24:31.090Z,16.77
2017-05-15T02:25:32.462Z,16.80
2017-05-15T02:26:33.829Z,16.78
2017-05-15T02:27:35.224Z,16.78
2017-05-15T02:28:36.591Z,16.78
2017-05-15T02:29:37.959Z,16.75
2017-05-15T02:30:39.321Z,16.68
2017-05-15T02:31:40.685Z,16.77
2017-05-15T02:32:42.061Z,16.74
2017-05-15T02:33:43.449Z,16.68
2017-05-15T02:34:44.815Z,16.68
2017-05-15T02:35:46.186Z,16.74
2017-05-15T02:36:47.555Z,16.85
2017-05-15T02:37:48.917Z,16.80
2017-05-15T02:38:50.286Z,16.62
2017-05-15T02:39:51.644Z,16.70
2017-05-15T02:40:53.055Z,16.63
2017-05-15T02:41:54.414Z,16.71
2017-05-15T02:42:55.789Z,16.71
2017-05-15T02:43:57.157Z,16.63
2017-05-15T02:44:58.526Z,16.73
2017-05-15T02:45:59.898Z,16.67
2017-05-15T02:47:01.269Z,16.56
2017-05-15T02:48:02.639Z,16.65
2017-05-15T02:49:04.010Z,16.71
2017-05-15T02:50:05.375Z,16.71
2017-05-15T02:51:06.755Z,16.77
2017-05-15T02:52:08.115Z,16.81
2017-05-15T02:53:09.486Z,16.77
2017-05-15T02:54:10.946Z,16.58
2017-05-15T02:55:12.309Z,16.73
2017-05-15T02:56:13.713Z,16.74
2017-05-15T02:57:15.080Z,16.63
2017-05-15T02:58:16.464Z,16.55
2017-05-15T02:59:17.825Z,16.71
2017-05-15T03:00:19.187Z,16.68
2017-05-15T03:01:20.571Z,16.78
2017-05-15T03:02:21.934Z,16.83
2017-05-15T03:03:23.300Z,16.73
2017-05-15T03:04:24.663Z,16.73
2017-05-15T03:05:26.029Z,16.70
2017-05-15T03:06:27.395Z,16.70
2017-05-15T03:07:28.758Z,16.65
2017-05-15T03:08:30.124Z,16.71
2017-05-15T03:09:31.491Z,16.77
2017-05-15T03:10:32.857Z,16.75
2017-05-15T03:11:34.221Z,16.52
2017-05-15T03:12:35.593Z,16.58
2017-05-15T03:13:37.707Z,16.63
2017-05-15T03:14:39.065Z,16.70
2017-05-15T03:15:40.509Z,16.70
2017-05-15T03:16:41.875Z,16.70
2017-05-15T03:17:43.248Z,16.75
2017-05-15T03:18:44.617Z,16.74
2017-05-15T03:19:45.982Z,16.70
2017-05-15T03:20:47.355Z,16.55
2017-05-15T03:21:48.712Z,16.68
2017-05-15T03:22:50.092Z,16.71
2017-05-15T03:23:51.458Z,16.60
2017-05-15T03:24:52.848Z,16.59
2017-05-15T03:25:54.296Z,16.59
2017-05-15T03:26:55.666Z,16.65
2017-05-15T03:27:57.045Z,16.63
2017-05-15T03:28:58.407Z,16.62
2017-05-15T03:29:59.775Z,16.53
2017-05-15T03:31:01.151Z,16.59
2017-05-15T03:32:02.524Z,16.63
2017-05-15T03:33:03.917Z,16.59
2017-05-15T03:34:06.016Z,16.52
2017-05-15T03:35:07.398Z,16.50
2017-05-15T03:36:08.771Z,16.59
2017-05-15T03:37:10.146Z,16.56
2017-05-15T03:38:11.514Z,16.58
2017-05-15T03:39:12.877Z,16.52
2017-05-15T03:40:14.247Z,16.52
2017-05-15T03:41:15.683Z,16.56
2017-05-15T03:42:17.051Z,16.53
2017-05-15T03:43:18.418Z,16.56
2017-05-15T03:44:19.784Z,16.53
2017-05-15T03:45:21.162Z,16.59
2017-05-15T03:46:22.537Z,16.53
2017-05-15T03:47:23.909Z,16.60
2017-05-15T03:48:25.286Z,16.42
2017-05-15T03:49:26.659Z,16.55
2017-05-15T03:50:28.071Z,16.60
2017-05-15T03:51:29.439Z,16.60
2017-05-15T03:52:30.805Z,16.58
2017-05-15T03:53:32.192Z,16.55
2017-05-15T03:54:33.561Z,16.50
2017-05-15T03:55:34.934Z,16.52
2017-05-15T03:56:36.324Z,16.56
2017-05-15T03:57:37.697Z,16.55
2017-05-15T03:58:39.068Z,16.53
2017-05-15T03:59:40.436Z,16.56
2017-05-15T04:00:41.805Z,16.49
2017-05-15T04:01:43.175Z,16.53
2017-05-15T04:02:44.548Z,16.56
2017-05-15T04:03:45.912Z,16.55
2017-05-15T04:04:47.278Z,16.56
2017-05-15T04:05:48.653Z,16.59
2017-05-15T04:06:50.069Z,16.62
2017-05-15T04:07:51.394Z,16.52
2017-05-15T04:08:52.776Z,16.53
2017-05-15T04:09:54.141Z,16.56
2017-05-15T04:10:55.518Z,16.52
2017-05-15T04:11:56.884Z,16.71
2017-05-15T04:12:58.253Z,16.58
2017-05-15T04:13:59.621Z,16.60
2017-05-15T04:15:00.993Z,16.58
2017-05-15T04:16:02.358Z,16.56
2017-05-15T04:17:03.729Z,16.62
2017-05-15T04:18:05.100Z,16.62
2017-05-15T04:19:06.505Z,16.60
2017-05-15T04:20:07.832Z,16.67
2017-05-15T04:21:09.205Z,16.58
2017-05-15T04:22:10.573Z,16.68
2017-05-15T04:23:11.944Z,16.58
2017-05-15T04:24:13.309Z,16.58
2017-05-15T04:25:14.680Z,16.58
2017-05-15T04:26:16.045Z,16.65
2017-05-15T04:27:17.409Z,16.80
2017-05-15T04:28:18.783Z,16.77
2017-05-15T04:29:20.153Z,16.74
2017-05-15T04:30:21.523Z,16.71
2017-05-15T04:31:22.913Z,16.55
2017-05-15T04:32:24.351Z,16.65
2017-05-15T04:33:25.721Z,16.70
2017-05-15T04:34:27.090Z,16.68
2017-05-15T04:35:28.471Z,16.67
2017-05-15T04:36:29.839Z,16.55
2017-05-15T04:37:31.212Z,16.53
2017-05-15T04:38:32.581Z,16.70
2017-05-15T04:39:33.951Z,16.68
2017-05-15T04:40:35.311Z,16.67
2017-05-15T04:41:36.692Z,16.77
2017-05-15T04:42:38.058Z,16.80
2017-05-15T04:43:39.432Z,16.78
2017-05-15T04:44:40.800Z,16.75
2017-05-15T04:45:42.173Z,16.75
2017-05-15T04:46:43.540Z,16.81
2017-05-15T04:47:44.922Z,16.75
2017-05-15T04:48:46.298Z,16.77
2017-05-15T04:49:47.663Z,16.77
2017-05-15T04:50:49.033Z,16.81
2017-05-15T04:51:50.480Z,16.74
2017-05-15T04:52:51.870Z,16.70
2017-05-15T04:53:53.241Z,16.71
2017-05-15T04:54:54.606Z,16.74
2017-05-15T04:55:55.980Z,16.78
2017-05-15T04:56:57.355Z,16.78
2017-05-15T04:57:58.723Z,16.78
2017-05-15T04:59:00.091Z,16.78
2017-05-15T05:00:01.468Z,16.77
2017-05-15T05:01:02.858Z,16.78
2017-05-15T05:02:04.276Z,16.89
2017-05-15T05:03:05.655Z,16.90
2017-05-15T05:04:07.038Z,16.85
2017-05-15T05:05:08.422Z,16.85
2017-05-15T05:06:09.789Z,16.90
2017-05-15T05:07:11.168Z,16.85
2017-05-15T05:08:12.542Z,16.74
2017-05-15T05:09:13.912Z,16.81
2017-05-15T05:10:15.281Z,16.92
2017-05-15T05:11:16.671Z,16.85
2017-05-15T05:12:18.041Z,16.89
2017-05-15T05:13:19.412Z,16.77
2017-05-15T05:14:20.786Z,16.89
2017-05-15T05:15:22.149Z,16.75
2017-05-15T05:16:23.522Z,16.80
2017-05-15T05:17:24.901Z,16.93
2017-05-15T05:18:26.275Z,16.92
2017-05-15T05:19:27.654Z,16.80
2017-05-15T05:20:29.024Z,16.81
2017-05-15T05:21:30.412Z,16.89
2017-05-15T05:22:31.777Z,16.83
2017-05-15T05:23:33.200Z,16.78
2017-05-15T05:24:34.574Z,16.86
2017-05-15T05:25:35.937Z,16.93
2017-05-15T05:26:37.306Z,16.89
2017-05-15T05:27:38.692Z,16.93
2017-05-15T05:28:40.065Z,16.85
2017-05-15T05:29:41.436Z,16.88
2017-05-15T05:30:42.815Z,16.92
2017-05-15T05:31:44.197Z,16.92
2017-05-15T05:32:45.618Z,16.88
2017-05-15T05:33:47.003Z,17.03
2017-05-15T05:34:48.366Z,16.96
2017-05-15T05:35:49.734Z,17.07
2017-05-15T05:36:51.105Z,17.15
2017-05-15T05:37:52.475Z,17.08
2017-05-15T05:38:53.851Z,17.04
2017-05-15T05:39:55.218Z,17.00
2017-05-15T05:40:56.688Z,17.00
2017-05-15T05:41:58.058Z,16.99
2017-05-15T05:42:59.436Z,16.99
2017-05-15T05:44:00.804Z,17.07
2017-05-15T05:45:02.178Z,17.00
2017-05-15T05:46:03.552Z,17.08
2017-05-15T05:47:04.974Z,17.06
2017-05-15T05:48:06.310Z,17.04
2017-05-15T05:49:07.688Z,16.98
2017-05-15T05:50:09.059Z,17.10
2017-05-15T05:51:10.430Z,17.15
2017-05-15T05:52:11.871Z,17.20
2017-05-15T05:53:13.244Z,17.29
2017-05-15T05:54:14.623Z,17.30
2017-05-15T05:55:15.996Z,17.28
2017-05-15T05:56:17.367Z,17.25
2017-05-15T05:57:18.737Z,17.30
2017-05-15T05:58:20.125Z,17.26
2017-05-15T05:59:21.495Z,17.30
2017-05-15T06:00:22.871Z,17.26
2017-05-15T06:01:24.249Z,17.28
2017-05-15T06:02:25.621Z,17.40
2017-05-15T06:03:27.011Z,17.28
2017-05-15T06:04:28.399Z,17.30
2017-05-15T06:05:29.773Z,17.51
2017-05-15T06:06:31.145Z,17.41
2017-05-15T06:07:32.559Z,17.53
2017-05-15T06:08:33.929Z,17.40
2017-05-15T06:09:35.300Z,17.51
2017-05-15T06:10:37.597Z,17.51
2017-05-15T06:11:38.998Z,17.54
2017-05-15T06:12:40.378Z,17.30
2017-05-15T06:13:41.742Z,17.50
2017-05-15T06:14:43.136Z,17.33
2017-05-15T06:15:44.496Z,17.40
2017-05-15T06:16:45.893Z,17.41
2017-05-15T06:17:47.270Z,17.41
2017-05-15T06:18:48.667Z,17.62
2017-05-15T06:19:50.035Z,17.57
2017-05-15T06:20:51.405Z,17.70
2017-05-15T06:21:52.776Z,17.46
2017-05-15T06:22:54.170Z,17.63
2017-05-15T06:23:55.537Z,17.69
2017-05-15T06:24:56.920Z,17.62
2017-05-15T06:25:58.300Z,17.57
2017-05-15T06:26:59.664Z,17.55
2017-05-15T06:28:01.101Z,17.78
2017-05-15T06:29:02.479Z,17.85
2017-05-15T06:30:03.851Z,17.84
2017-05-15T06:31:05.229Z,17.73
2017-05-15T06:32:06.603Z,17.67
2017-05-15T06:33:07.972Z,17.70
2017-05-15T06:34:09.407Z,17.79
2017-05-15T06:35:10.782Z,17.91
2017-05-15T06:36:12.153Z,17.89
2017-05-15T06:37:13.565Z,17.94
2017-05-15T06:38:14.936Z,18.03
2017-05-15T06:39:16.304Z,17.99
2017-05-15T06:40:17.681Z,18.03
2017-05-15T06:41:19.051Z,18.02
2017-05-15T06:42:20.425Z,18.12
2017-05-15T06:43:21.793Z,18.03
2017-05-15T06:44:23.163Z,18.13
2017-05-15T06:45:24.535Z,18.12
2017-05-15T06:46:25.913Z,18.18
2017-05-15T06:47:27.296Z,17.97
2017-05-15T06:48:28.712Z,18.00
2017-05-15T06:49:30.086Z,18.12
2017-05-15T06:50:31.454Z,18.12
2017-05-15T06:51:32.824Z,17.97
2017-05-15T06:52:34.198Z,18.06
2017-05-15T06:53:35.570Z,18.15
2017-05-15T06:54:36.950Z,18.18
2017-05-15T06:55:38.322Z,18.29
2017-05-15T06:56:39.695Z,18.34
2017-05-15T06:57:41.070Z,18.34
2017-05-15T06:58:42.439Z,18.31
2017-05-15T06:59:43.810Z,18.10
2017-05-15T07:00:45.185Z,18.09
2017-05-15T07:01:46.552Z,18.27
2017-05-15T07:02:47.924Z,18.31
2017-05-15T07:03:49.293Z,18.42
2017-05-15T07:04:50.679Z,18.46
2017-05-15T07:05:52.101Z,18.62
2017-05-15T07:06:53.477Z,18.62
2017-05-15T07:07:54.848Z,18.39
2017-05-15T07:08:56.218Z,18.33
2017-05-15T07:09:57.591Z,18.37
2017-05-15T07:10:58.962Z,18.47
2017-05-15T07:12:00.332Z,18.67
2017-05-15T07:13:01.707Z,18.27
2017-05-15T07:14:03.080Z,18.42
2017-05-15T07:15:04.470Z,18.52
2017-05-15T07:16:05.835Z,18.62
2017-05-15T07:17:07.310Z,18.79
2017-05-15T07:18:08.691Z,18.58
2017-05-15T07:19:10.057Z,18.80
2017-05-15T07:20:11.463Z,18.61
2017-05-15T07:21:12.848Z,18.83
2017-05-15T07:22:14.214Z,18.54
2017-05-15T07:23:15.588Z,18.77
2017-05-15T07:24:17.111Z,18.92
2017-05-15T07:25:18.482Z,18.99
2017-05-15T07:26:19.867Z,18.80
2017-05-15T07:27:21.230Z,18.82
2017-05-15T07:28:22.605Z,18.77
2017-05-15T07:29:23.972Z,18.80
2017-05-15T07:30:25.372Z,18.91
2017-05-15T07:31:26.736Z,19.13
2017-05-15T07:32:28.116Z,19.13
2017-05-15T07:33:29.485Z,19.15
2017-05-15T07:34:31.427Z,19.01
2017-05-15T07:35:32.809Z,19.06
2017-05-15T07:36:34.242Z,19.01
2017-05-15T07:37:35.622Z,19.06
2017-05-15T07:38:37.014Z,19.10
2017-05-15T07:39:38.403Z,19.17
2017-05-15T07:40:39.793Z,19.21
2017-05-15T07:41:41.211Z,19.17
2017-05-15T07:42:42.578Z,19.17
2017-05-15T07:43:44.166Z,19.24
2017-05-15T07:44:45.648Z,19.29
2017-05-15T07:45:46.996Z,19.18
2017-05-15T07:46:48.460Z,19.06
2017-05-15T07:47:49.830Z,19.05
2017-05-15T07:48:51.202Z,19.24
2017-05-15T07:49:52.597Z,19.24
2017-05-15T07:50:54.105Z,19.17
2017-05-15T07:51:55.476Z,19.31
2017-05-15T07:52:56.850Z,19.20
2017-05-15T07:53:58.216Z,19.31
2017-05-15T07:54:59.590Z,19.33
2017-05-15T07:56:00.966Z,19.43
2017-05-15T07:57:02.444Z,19.42
2017-05-15T07:58:03.876Z,19.54
2017-05-15T07:59:05.272Z,19.57
2017-05-15T08:00:06.650Z,19.66
2017-05-15T08:01:08.027Z,19.66
2017-05-15T08:02:09.405Z,19.70
2017-05-15T08:03:10.860Z,19.66
2017-05-15T08:04:12.309Z,19.58
2017-05-15T08:05:13.710Z,19.70
2017-05-15T08:06:15.113Z,19.73
2017-05-15T08:07:16.534Z,19.75
2017-05-15T08:08:17.916Z,19.80
2017-05-15T08:09:19.294Z,19.84
2017-05-15T08:10:20.683Z,19.60
2017-05-15T08:11:22.068Z,19.76
2017-05-15T08:12:23.451Z,19.66
2017-05-15T08:13:24.831Z,19.76
2017-05-15T08:14:26.209Z,19.78
2017-05-15T08:15:27.588Z,19.84
2017-05-15T08:16:28.977Z,19.94
2017-05-15T08:17:30.343Z,19.83
2017-05-15T08:18:31.722Z,19.90
2017-05-15T08:19:33.091Z,19.88
2017-05-15T08:20:34.530Z,19.87
2017-05-15T08:21:35.897Z,19.94
2017-05-15T08:22:37.273Z,19.95
2017-05-15T08:23:38.650Z,20.02
2017-05-15T08:24:40.026Z,19.91
2017-05-15T08:25:41.421Z,19.90
2017-05-15T08:26:42.801Z,19.95
2017-05-15T08:27:44.190Z,19.98
2017-05-15T08:28:45.652Z,20.09
2017-05-15T08:29:47.003Z,20.05
2017-05-15T08:30:48.457Z,20.06
2017-05-15T08:31:49.836Z,19.88
2017-05-15T08:32:51.241Z,19.93
2017-05-15T08:33:52.603Z,19.79
2017-05-15T08:34:53.980Z,19.91
2017-05-15T08:35:55.354Z,19.93
2017-05-15T08:36:56.767Z,19.90
2017-05-15T08:37:58.150Z,19.86
2017-05-15T08:38:59.527Z,19.94
2017-05-15T08:40:00.929Z,19.78
2017-05-15T08:41:02.333Z,19.69
2017-05-15T08:42:03.801Z,19.86
2017-05-15T08:43:05.172Z,20.06
2017-05-15T08:44:06.544Z,20.06
2017-05-15T08:45:07.931Z,20.03
2017-05-15T08:46:09.306Z,20.08
2017-05-15T08:47:10.761Z,19.86
2017-05-15T08:48:12.282Z,20.09
2017-05-15T08:49:13.755Z,19.88
2017-05-15T08:50:15.111Z,19.75
2017-05-15T08:51:16.575Z,19.80
2017-05-15T08:52:18.629Z,19.61
2017-05-15T08:53:20.003Z,19.58
2017-05-15T08:54:21.383Z,19.86
2017-05-15T08:55:22.761Z,19.97
2017-05-15T08:56:24.146Z,20.02
2017-05-15T08:57:25.517Z,20.10
2017-05-15T08:58:26.936Z,20.15
2017-05-15T08:59:28.338Z,20.25
2017-05-15T09:00:29.710Z,20.15
2017-05-15T09:01:31.847Z,20.21
2017-05-15T09:02:33.239Z,19.84
2017-05-15T09:03:34.599Z,19.80
2017-05-15T09:04:35.974Z,20.18
2017-05-15T09:05:37.344Z,20.08
2017-05-15T09:06:38.730Z,20.16
2017-05-15T09:07:40.108Z,20.18
2017-05-15T09:08:41.492Z,20.21
2017-05-15T09:09:42.863Z,20.10
2017-05-15T09:10:44.241Z,20.08
2017-05-15T09:11:45.620Z,20.24
2017-05-15T09:12:46.997Z,20.53
2017-05-15T09:13:48.383Z,20.33
2017-05-15T09:14:50.699Z,20.10
2017-05-15T09:15:52.084Z,19.97
2017-05-15T09:16:53.464Z,20.24
2017-05-15T09:17:54.846Z,20.18
2017-05-15T09:18:56.231Z,20.08
2017-05-15T09:19:57.607Z,20.46
2017-05-15T09:20:58.974Z,20.61
2017-05-15T09:22:00.385Z,20.34
2017-05-15T09:23:01.767Z,20.65
2017-05-15T09:24:03.153Z,20.68
2017-05-15T09:25:04.527Z,20.83
2017-05-15T09:26:05.921Z,20.90
2017-05-15T09:27:07.388Z,20.95
2017-05-15T09:28:08.755Z,20.87
2017-05-15T09:29:10.138Z,21.05
2017-05-15T09:30:11.514Z,20.99
2017-05-15T09:31:12.905Z,20.86
2017-05-15T09:32:14.277Z,21.06
2017-05-15T09:33:15.723Z,20.61
2017-05-15T09:34:17.146Z,20.62
2017-05-15T09:35:18.516Z,21.06
2017-05-15T09:36:19.898Z,21.06
2017-05-15T09:37:21.284Z,21.21
2017-05-15T09:38:22.607Z,21.01
2017-05-15T09:39:23.986Z,21.14
2017-05-15T09:40:25.375Z,21.26
2017-05-15T09:41:26.860Z,21.48
2017-05-15T09:42:28.405Z,21.53
2017-05-15T09:43:29.781Z,21.27
2017-05-15T09:44:31.154Z,21.21
2017-05-15T09:45:32.536Z,21.34
2017-05-15T09:46:33.918Z,21.24
2017-05-15T09:47:35.288Z,21.36
2017-05-15T09:48:36.659Z,20.96
2017-05-15T09:49:38.028Z,20.76
2017-05-15T09:50:39.401Z,20.93
2017-05-15T09:51:40.813Z,21.23
2017-05-15T09:52:42.189Z,21.23
2017-05-15T09:53:43.573Z,21.46
2017-05-15T09:54:44.937Z,21.54
2017-05-15T09:55:46.323Z,21.46
2017-05-15T09:56:47.692Z,21.50
2017-05-15T09:57:49.156Z,21.02
2017-05-15T09:58:50.530Z,21.42
2017-05-15T09:59:51.906Z,21.72
2017-05-15T10:00:53.292Z,21.85
2017-05-15T10:01:54.669Z,21.54
2017-05-15T10:02:56.038Z,21.64
2017-05-15T10:03:57.413Z,21.74
2017-05-15T10:04:58.789Z,21.51
2017-05-15T10:06:00.167Z,21.46
2017-05-15T10:07:01.553Z,21.53
2017-05-15T10:08:02.926Z,21.83
2017-05-15T10:09:04.303Z,21.76
2017-05-15T10:10:05.680Z,21.75
2017-05-15T10:11:07.062Z,21.82
2017-05-15T10:12:08.428Z,21.87
2017-05-15T10:13:09.810Z,21.91
2017-05-15T10:14:11.183Z,21.44
2017-05-15T10:15:12.561Z,21.78
2017-05-15T10:16:13.950Z,21.87
2017-05-15T10:17:15.328Z,21.78
2017-05-15T10:18:16.701Z,21.90
2017-05-15T10:19:18.070Z,21.82
2017-05-15T10:20:19.618Z,21.79
2017-05-15T10:21:20.995Z,22.01
2017-05-15T10:22:22.366Z,22.01
2017-05-15T10:23:23.739Z,22.09
2017-05-15T10:24:25.107Z,22.09
2017-05-15T10:25:26.528Z,21.90
2017-05-15T10:26:28.030Z,21.85
2017-05-15T10:27:29.407Z,21.92
2017-05-15T10:28:30.787Z,22.04
2017-05-15T10:29:32.162Z,21.78
2017-05-15T10:30:33.542Z,21.97
2017-05-15T10:31:34.911Z,22.16
2017-05-15T10:32:36.290Z,21.95
2017-05-15T10:33:37.672Z,22.04
2017-05-15T10:34:39.053Z,21.91
2017-05-15T10:35:40.432Z,21.61
2017-05-15T10:36:41.832Z,21.48
2017-05-15T10:37:43.212Z,21.54
2017-05-15T10:38:44.606Z,21.50
2017-05-15T10:39:45.976Z,21.21
2017-05-15T10:40:47.351Z,21.60
2017-05-15T10:41:48.755Z,21.90
2017-05-15T10:42:50.130Z,21.83
2017-05-15T10:43:51.505Z,22.02
2017-05-15T10:44:52.881Z,21.83
2017-05-15T10:45:54.258Z,21.75
2017-05-15T10:46:55.636Z,21.64
2017-05-15T10:47:57.006Z,21.72
2017-05-15T10:48:58.386Z,21.79
2017-05-15T10:49:59.759Z,21.78
2017-05-15T10:51:01.133Z,21.87
2017-05-15T10:52:02.560Z,21.98
2017-05-15T10:53:03.936Z,22.09
2017-05-15T10:54:05.316Z,22.02
2017-05-15T10:55:06.685Z,22.04
2017-05-15T10:56:08.158Z,22.07
2017-05-15T10:57:09.537Z,22.10
2017-05-15T10:58:10.924Z,22.13
2017-05-15T10:59:12.304Z,22.10
2017-05-15T11:00:13.672Z,22.12
2017-05-15T11:01:15.049Z,22.10
2017-05-15T11:02:16.429Z,22.22
2017-05-15T11:03:17.905Z,22.06
2017-05-15T11:04:19.285Z,22.09
2017-05-15T11:05:20.658Z,22.10
2017-05-15T11:06:22.033Z,22.19
2017-05-15T11:07:23.407Z,21.98
2017-05-15T11:08:24.804Z,22.12
2017-05-15T11:09:26.177Z,22.20
2017-05-15T11:10:27.570Z,22.17
2017-05-15T11:11:28.873Z,22.20
2017-05-15T11:12:30.246Z,22.32
2017-05-15T11:13:31.623Z,22.27
2017-05-15T11:14:32.998Z,22.17
2017-05-15T11:15:34.383Z,22.31
2017-05-15T11:16:35.763Z,22.31
2017-05-15T11:17:37.136Z,21.92
2017-05-15T11:18:38.514Z,22.12
2017-05-15T11:19:39.890Z,22.31
2017-05-15T11:20:41.263Z,21.99
2017-05-15T11:21:42.644Z,21.95
2017-05-15T11:22:44.015Z,21.48
2017-05-15T11:23:45.414Z,21.90
2017-05-15T11:24:46.792Z,22.10
2017-05-15T11:25:48.173Z,22.28
2017-05-15T11:26:49.602Z,22.39
2017-05-15T11:27:50.993Z,22.13
2017-05-15T11:28:52.382Z,22.20
2017-05-15T11:29:53.755Z,22.29
2017-05-15T11:30:55.143Z,22.49
2017-05-15T11:31:56.516Z,22.46
2017-05-15T11:32:57.897Z,22.57
2017-05-15T11:33:59.284Z,22.47
2017-05-15T11:35:00.675Z,22.49
2017-05-15T11:36:02.165Z,22.13
2017-05-15T11:37:03.542Z,22.34
2017-05-15T11:38:04.919Z,22.44
2017-05-15T11:39:06.294Z,22.49
2017-05-15T11:40:07.677Z,22.68
2017-05-15T11:41:09.051Z,22.41
2017-05-15T11:42:10.452Z,22.60
2017-05-15T11:43:11.829Z,22.23
2017-05-15T11:44:13.199Z,22.50
2017-05-15T11:45:14.638Z,22.29
2017-05-15T11:46:16.014Z,22.65
2017-05-15T11:47:17.392Z,22.77
2017-05-15T11:48:18.767Z,22.65
2017-05-15T11:49:20.152Z,22.68
2017-05-15T11:50:21.540Z,22.52
2017-05-15T11:51:22.928Z,22.60
2017-05-15T11:52:24.310Z,22.62
2017-05-15T11:53:25.695Z,22.56
2017-05-15T11:54:27.117Z,22.16
2017-05-15T11:55:28.490Z,22.38
2017-05-15T11:56:29.863Z,22.37
2017-05-15T11:57:31.237Z,22.34
2017-05-15T11:58:32.653Z,22.19
2017-05-15T11:59:34.054Z,22.43
2017-05-15T12:00:35.427Z,22.53
2017-05-15T12:01:36.804Z,22.20
2017-05-15T12:02:38.188Z,22.20
2017-05-15T12:03:39.585Z,22.23
2017-05-15T12:04:40.959Z,22.23
2017-05-15T12:05:42.329Z,22.17
2017-05-15T12:06:43.710Z,21.99
2017-05-15T12:07:45.833Z,22.04
2017-05-15T12:08:47.213Z,21.82
2017-05-15T12:09:48.610Z,22.07
2017-05-15T12:10:49.986Z,22.16
2017-05-15T12:11:51.385Z,22.28
2017-05-15T12:12:52.759Z,22.29
2017-05-15T12:13:54.131Z,22.44
2017-05-15T12:14:55.500Z,22.60
2017-05-15T12:15:56.878Z,22.50
2017-05-15T12:16:58.253Z,22.10
2017-05-15T12:17:59.627Z,21.90
2017-05-15T12:19:01.186Z,22.23
2017-05-15T12:20:02.564Z,22.29
2017-05-15T12:21:03.941Z,22.44
2017-05-15T12:22:05.310Z,22.34
2017-05-15T12:23:06.690Z,22.52
2017-05-15T12:24:08.063Z,22.62
2017-05-15T12:25:09.443Z,22.62
2017-05-15T12:26:10.815Z,22.54
2017-05-15T12:27:12.189Z,22.44
2017-05-15T12:28:13.589Z,22.39
2017-05-15T12:29:14.978Z,22.49
2017-05-15T12:30:16.371Z,22.65
2017-05-15T12:31:17.754Z,22.77
2017-05-15T12:32:19.134Z,22.82
2017-05-15T12:33:20.508Z,22.72
2017-05-15T12:34:21.887Z,22.75
2017-05-15T12:35:23.253Z,22.82
2017-05-15T12:36:24.642Z,22.71
2017-05-15T12:37:26.015Z,22.89
2017-05-15T12:38:27.389Z,22.93
2017-05-15T12:39:28.769Z,22.92
2017-05-15T12:40:30.179Z,22.96
2017-05-15T12:41:31.562Z,22.77
2017-05-15T12:42:32.940Z,22.44
2017-05-15T12:43:34.327Z,22.43
2017-05-15T12:44:35.697Z,22.43
2017-05-15T12:45:37.089Z,22.50
2017-05-15T12:46:38.560Z,22.56
2017-05-15T12:47:39.971Z,22.64
2017-05-15T12:48:41.338Z,22.89
2017-05-15T12:49:42.792Z,22.84
2017-05-15T12:50:44.172Z,22.80
2017-05-15T12:51:45.548Z,22.62
2017-05-15T12:52:46.930Z,22.67
2017-05-15T12:53:48.306Z,22.87
2017-05-15T12:54:49.677Z,22.74
2017-05-15T12:55:51.057Z,22.80
2017-05-15T12:56:52.430Z,22.78
2017-05-15T12:57:53.807Z,22.90
2017-05-15T12:58:55.183Z,22.94
2017-05-15T12:59:56.561Z,22.75
2017-05-15T13:00:57.937Z,22.78
2017-05-15T13:01:59.310Z,22.89
2017-05-15T13:03:00.692Z,23.08
2017-05-15T13:04:02.136Z,22.89
2017-05-15T13:05:03.522Z,23.04
2017-05-15T13:06:04.898Z,23.14
2017-05-15T13:07:06.785Z,22.96
2017-05-15T13:08:08.166Z,22.71
2017-05-15T13:09:09.540Z,22.86
2017-05-15T13:10:10.927Z,22.89